Time;durP1;ratioP1;P1;durP2;ratioP2;P2;SDS_P1;SDS_P2;PMS_P1;PMS_P2;Temp;Humidity;BMP_temperature;BMP_pressure;BME280_temperature;BME280_humidity;BME280_pressure;Samples;Min_cycle;Max_cycle;Signal;HPM_P1;HPM_P2
2022/06/02 00:01:40;;;;;;;15.30;2.33;;;;;;;19.55;nan;101204.59;4958522;28;20450;-85
2022/06/02 00:04:19;;;;;;;16.17;3.40;;;;;;;19.64;nan;101214.22;4973730;28;20454;-85
2022/06/02 00:07:01;;;;;;;14.10;2.73;;;;;;;19.62;nan;101197.84;4958333;28;20532;-84
2022/06/02 00:09:34;;;;;;;13.07;2.67;;;;;;;19.68;nan;101209.88;4988767;28;20828;-85
2022/06/02 00:12:14;;;;;;;11.77;2.53;;;;;;;19.63;nan;101193.13;4974291;28;20808;-84
2022/06/02 00:15:00;;;;;;;21.40;3.10;;;;;;;19.65;nan;101207.59;5006318;28;20469;-85
2022/06/02 00:17:46;;;;;;;15.73;3.37;;;;;;;19.64;nan;101211.44;5037270;28;20447;-85
2022/06/02 00:20:15;;;;;;;20.37;3.10;;;;;;;19.53;nan;101190.13;5055057;28;20968;-85
2022/06/02 00:23:01;;;;;;;12.70;2.40;;;;;;;19.58;nan;101201.34;5053662;28;20442;-85
2022/06/02 00:25:50;;;;;;;19.40;3.03;;;;;;;19.50;nan;101187.84;5053572;28;21005;-85
2022/06/02 00:28:38;;;;;;;18.87;3.20;;;;;;;19.54;nan;101198.22;5037385;28;20951;-85
2022/06/02 00:31:39;;;;;;;13.17;2.73;;;;;;;19.54;nan;101195.44;5053005;28;20976;-85
2022/06/02 00:34:22;;;;;;;19.97;3.60;;;;;;;19.53;nan;101190.13;5052414;28;20489;-86
2022/06/02 00:37:16;;;;;;;21.97;3.20;;;;;;;19.48;nan;101190.81;5053494;28;20453;-85
2022/06/02 00:39:44;;;;;;;19.33;3.07;;;;;;;19.44;nan;101192.38;5053312;28;20872;-85
2022/06/02 00:42:36;;;;;;;10.90;2.20;;;;;;;19.39;nan;101186.75;5036978;28;20568;-85
2022/06/02 00:45:09;;;;;;;14.20;3.40;;;;;;;19.34;nan;101186.59;5053036;28;20462;-85
2022/06/02 00:47:53;;;;;;;17.23;2.80;;;;;;;19.29;nan;101195.63;5036754;28;20454;-85
2022/06/02 00:50:32;;;;;;;16.07;3.30;;;;;;;19.26;nan;101192.50;5036986;28;20951;-85
2022/06/02 00:53:17;;;;;;;13.70;2.60;;;;;;;19.21;nan;101190.47;5052999;28;20438;-85
2022/06/02 00:59:12;;;;;;;15.03;2.97;;;;;;;19.22;nan;101183.84;5053069;28;20457;-84
2022/06/02 01:01:39;;;;;;;14.80;2.60;;;;;;;19.21;nan;101173.00;5052774;28;20454;-85
2022/06/02 01:04:19;;;;;;;16.60;3.10;;;;;;;19.23;nan;101171.69;5036360;28;20442;-85
2022/06/02 01:06:51;;;;;;;13.27;2.63;;;;;;;19.26;nan;101170.31;5037534;28;20511;-85
2022/06/02 01:09:28;;;;;;;12.63;2.70;;;;;;;19.31;nan;101174.06;5036701;28;20450;-85
2022/06/02 01:12:26;;;;;;;16.20;2.93;;;;;;;19.28;nan;101163.47;5036548;28;20530;-85
2022/06/02 01:14:56;;;;;;;21.53;2.90;;;;;;;19.33;nan;101171.91;5038390;28;20860;-85
2022/06/02 01:18:06;;;;;;;14.20;2.63;;;;;;;19.28;nan;101157.91;5052611;28;20450;-84
2022/06/02 01:20:36;;;;;;;9.30;2.23;;;;;;;19.30;nan;101166.00;5039245;28;20446;-85
2022/06/02 01:23:31;;;;;;;13.13;2.50;;;;;;;19.26;nan;101157.31;5052435;28;20450;-84
2022/06/02 01:26:53;;;;;;;23.57;2.97;;;;;;;19.29;nan;101161.53;5053306;28;20451;-85
2022/06/02 01:29:54;;;;;;;14.50;2.53;;;;;;;19.25;nan;101158.41;5046679;28;20451;-85
2022/06/02 01:32:34;;;;;;;17.83;3.50;;;;;;;19.22;nan;101153.34;5053356;28;20456;-85
2022/06/02 01:35:33;;;;;;;16.93;3.27;;;;;;;19.20;nan;101152.75;5051257;28;20478;-85
2022/06/02 01:38:07;;;;;;;10.30;2.53;;;;;;;19.19;nan;101153.84;5052168;28;20504;-86
2022/06/02 01:40:41;;;;;;;21.50;3.37;;;;;;;19.17;nan;101156.00;5053278;28;20450;-85
2022/06/02 01:43:15;;;;;;;16.77;2.70;;;;;;;19.15;nan;101149.00;5051977;28;20447;-85
2022/06/02 01:45:52;;;;;;;15.57;2.97;;;;;;;19.14;nan;101150.94;5067509;28;20481;-85
2022/06/02 01:48:31;;;;;;;15.57;3.13;;;;;;;19.12;nan;101147.56;5052072;28;20452;-85
2022/06/02 01:51:17;;;;;;;13.77;2.70;;;;;;;19.08;nan;101143.56;5051979;28;20954;-85
2022/06/02 01:54:02;;;;;;;13.10;2.17;;;;;;;19.05;nan;101149.59;5051011;28;20466;-85
2022/06/02 01:56:56;;;;;;;18.70;3.40;;;;;;;18.98;nan;101151.66;5051937;28;20543;-85
2022/06/02 01:59:49;;;;;;;23.23;3.57;;;;;;;18.95;nan;101154.91;5066032;28;20944;-85
2022/06/02 02:02:26;;;;;;;12.67;2.50;;;;;;;18.91;nan;101150.91;5065988;28;20945;-85
2022/06/02 02:05:13;;;;;;;22.03;2.97;;;;;;;18.87;nan;101144.16;5051827;28;20479;-84
2022/06/02 02:07:46;;;;;;;15.50;3.10;;;;;;;18.88;nan;101149.47;5051968;28;20443;-85
2022/06/02 02:10:34;;;;;;;26.70;3.60;;;;;;;18.87;nan;101138.63;5051543;28;20820;-85
2022/06/02 02:13:25;;;;;;;11.03;2.70;;;;;;;18.92;nan;101138.75;5067080;28;20447;-84
2022/06/02 02:16:26;;;;;;;27.40;4.93;;;;;;;18.97;nan;101147.19;5068338;28;20535;-85
2022/06/02 02:18:54;;;;;;;14.30;3.07;;;;;;;19.01;nan;101134.56;5051704;28;20445;-84
2022/06/02 02:21:42;;;;;;;16.40;3.30;;;;;;;19.07;nan;101128.03;5052898;28;20535;-84
2022/06/02 02:24:19;;;;;;;24.27;3.20;;;;;;;19.15;nan;101130.47;5052533;28;20450;-85
2022/06/02 02:30:50;;;;;;;25.97;3.23;;;;;;;19.24;nan;101129.00;5050476;28;20797;-84
2022/06/02 02:33:26;;;;;;;19.10;3.10;;;;;;;19.26;nan;101118.50;5020441;28;20505;-85
2022/06/02 02:35:56;;;;;;;21.43;3.40;;;;;;;19.26;nan;101126.81;5034273;28;20485;-84
2022/06/02 02:38:54;;;;;;;20.90;2.87;;;;;;;19.32;nan;101131.41;5034291;28;20989;-85
2022/06/02 02:41:52;;;;;;;15.70;3.20;;;;;;;19.39;nan;101130.44;5050596;28;20439;-84
2022/06/02 02:44:23;;;;;;;20.67;4.13;;;;;;;19.40;nan;101126.59;5014203;28;20460;-84
2022/06/02 02:47:04;;;;;;;20.13;3.33;;;;;;;19.40;nan;101132.13;5014066;28;20859;-85
2022/06/02 02:49:56;;;;;;;24.33;3.33;;;;;;;19.39;nan;101136.84;5030594;28;20484;-85
2022/06/02 02:52:44;;;;;;;11.30;2.47;;;;;;;19.45;nan;101132.22;5021535;28;20455;-85
2022/06/02 02:55:19;;;;;;;21.30;3.03;;;;;;;19.45;nan;101123.91;5013822;28;20846;-84
2022/06/02 02:57:55;;;;;;;21.53;3.70;;;;;;;19.52;nan;101130.22;5015948;28;20458;-85
2022/06/02 03:00:39;;;;;;;34.07;4.10;;;;;;;19.52;nan;101130.22;5018012;28;20465;-85
2022/06/02 03:04:06;;;;;;;17.07;3.17;;;;;;;19.55;nan;101126.97;5017200;28;20590;-85
2022/06/02 03:06:38;;;;;;;15.53;3.30;;;;;;;19.57;nan;101122.00;5054220;28;20826;-85
2022/06/02 03:09:14;;;;;;;24.10;4.23;;;;;;;19.60;nan;101127.94;5037727;28;20495;-84
2022/06/02 03:11:53;;;;;;;20.97;3.50;;;;;;;19.65;nan;101130.78;5021982;28;20441;-85
2022/06/02 03:14:44;;;;;;;24.43;3.10;;;;;;;19.63;nan;101126.56;5054104;28;20446;-85
2022/06/02 03:17:29;;;;;;;30.10;3.70;;;;;;;19.61;nan;101128.78;4985151;28;20509;-85
2022/06/02 03:20:28;;;;;;;24.90;3.60;;;;;;;19.54;nan;101120.56;4990566;28;20828;-85
2022/06/02 03:23:37;;;;;;;25.50;3.80;;;;;;;19.52;nan;101124.66;4972741;28;20441;-85
2022/06/02 03:26:51;;;;;;;16.30;3.40;;;;;;;19.47;nan;101124.50;5012337;28;20448;-84
2022/06/02 03:29:42;;;;;;;20.77;3.17;;;;;;;19.33;nan;101112.84;4997603;28;20444;-85
2022/06/02 03:33:00;;;;;;;17.20;3.13;;;;;;;19.32;nan;101123.09;4968069;28;20448;-85
2022/06/02 03:35:51;;;;;;;15.60;2.60;;;;;;;19.27;nan;101120.19;4974901;28;20493;-85
2022/06/02 03:38:35;;;;;;;25.57;3.80;;;;;;;19.22;nan;101117.34;4974847;28;20454;-85
2022/06/02 03:41:17;;;;;;;16.23;3.30;;;;;;;19.16;nan;101114.69;4958793;28;20867;-85
2022/06/02 03:44:17;;;;;;;20.57;4.13;;;;;;;19.09;nan;101113.94;4974404;28;20466;-85
2022/06/02 03:47:03;;;;;;;18.63;3.07;;;;;;;19.02;nan;101119.63;4974660;28;20458;-85
2022/06/02 03:49:36;;;;;;;16.63;3.10;;;;;;;18.89;nan;101125.38;4974563;28;20468;-85
2022/06/02 03:52:15;;;;;;;19.77;3.40;;;;;;;18.76;nan;101115.38;4974491;28;20512;-84
2022/06/02 03:55:05;;;;;;;11.57;2.50;;;;;;;18.68;nan;101129.56;4987510;28;20933;-85
2022/06/02 03:57:51;;;;;;;17.63;3.13;;;;;;;18.59;nan;101118.00;4993806;28;20549;-85
2022/06/02 04:00:22;;;;;;;14.77;3.67;;;;;;;18.45;nan;101119.25;4970221;28;20493;-85
2022/06/02 04:03:04;;;;;;;21.10;3.70;;;;;;;18.34;nan;101100.69;4939309;29;20451;-85
2022/06/02 04:05:48;;;;;;;19.90;3.80;;;;;;;18.44;nan;101113.97;4939154;29;20570;-85
2022/06/02 04:08:35;;;;;;;19.57;4.00;;;;;;;18.41;nan;101115.28;4943752;28;20447;-85
2022/06/02 04:11:11;;;;;;;22.83;2.93;;;;;;;18.40;nan;101124.66;5012800;28;20460;-85
2022/06/02 04:13:48;;;;;;;17.93;3.27;;;;;;;18.38;nan;101117.66;5046389;28;20459;-85
2022/06/02 04:16:44;;;;;;;28.67;3.07;;;;;;;18.35;nan;101124.50;5029886;28;20491;-85
2022/06/02 04:22:33;;;;;;;13.03;2.93;;;;;;;18.37;nan;101124.28;5040166;28;20455;-85
2022/06/02 04:25:25;;;;;;;23.73;4.13;;;;;;;18.34;nan;101122.81;5040874;28;20812;-85
2022/06/02 04:27:55;;;;;;;16.23;3.03;;;;;;;18.30;nan;101122.44;5029430;28;20822;-85
2022/06/02 04:30:47;;;;;;;14.97;3.20;;;;;;;18.24;nan;101122.56;5014915;28;20452;-85
2022/06/02 04:33:59;;;;;;;15.20;3.10;;;;;;;18.20;nan;101121.34;5013798;28;20452;-85
2022/06/02 04:37:08;;;;;;;28.00;4.17;;;;;;;18.23;nan;101113.41;5019493;28;20486;-85
2022/06/02 04:39:40;;;;;;;22.50;3.70;;;;;;;18.26;nan;101121.25;5036033;28;20450;-85
2022/06/02 04:42:30;;;;;;;21.03;3.23;;;;;;;18.29;nan;101123.53;5019731;28;20523;-85
2022/06/02 04:45:14;;;;;;;23.80;3.70;;;;;;;18.36;nan;101125.34;5051799;28;20565;-85
2022/06/02 04:48:24;;;;;;;20.33;3.13;;;;;;;18.40;nan;101121.03;5019326;28;21519;-85
2022/06/02 04:51:18;;;;;;;22.10;4.00;;;;;;;18.44;nan;101125.88;5040314;28;20508;-85
2022/06/02 04:53:48;;;;;;;25.80;3.90;;;;;;;18.43;nan;101126.13;5051979;28;20447;-85
2022/06/02 04:56:20;;;;;;;17.63;3.30;;;;;;;18.44;nan;101134.19;5052056;28;20482;-85
2022/06/02 04:59:03;;;;;;;27.03;3.20;;;;;;;18.44;nan;101136.94;5035554;28;20500;-86
2022/06/02 05:01:55;;;;;;;21.10;3.33;;;;;;;18.46;nan;101134.78;5051941;28;20449;-85
2022/06/02 05:04:59;;;;;;;15.73;3.03;;;;;;;18.44;nan;101144.41;5035369;28;20450;-85
2022/06/02 05:07:41;;;;;;;23.13;3.83;;;;;;;18.38;nan;101140.66;5029033;28;20578;-85
2022/06/02 05:10:23;;;;;;;19.07;3.80;;;;;;;18.28;nan;101132.06;5027726;28;20906;-85
2022/06/02 05:13:26;;;;;;;14.13;2.53;;;;;;;18.26;nan;101143.38;5029465;28;20452;-85
2022/06/02 05:16:02;;;;;;;16.37;3.73;;;;;;;18.23;nan;101149.38;5011582;28;21002;-84
2022/06/02 05:19:05;;;;;;;14.67;2.90;;;;;;;18.20;nan;101146.25;4995644;28;20455;-85
2022/06/02 05:22:11;;;;;;;12.53;2.80;;;;;;;18.15;nan;101140.56;4972462;28;20450;-85
2022/06/02 05:24:54;;;;;;;12.87;3.13;;;;;;;18.14;nan;101155.47;4972775;28;20454;-85
2022/06/02 05:27:36;;;;;;;18.77;2.90;;;;;;;18.11;nan;101155.94;4955127;28;20458;-85
2022/06/02 05:30:26;;;;;;;17.13;3.00;;;;;;;18.09;nan;101155.34;4956608;28;20458;-86
2022/06/02 05:32:56;;;;;;;28.13;3.70;;;;;;;18.07;nan;101161.09;4972800;28;20450;-85
2022/06/02 05:35:38;;;;;;;15.80;3.00;;;;;;;18.08;nan;101162.81;4956671;28;20478;-85
2022/06/02 05:38:36;;;;;;;17.23;2.83;;;;;;;18.10;nan;101159.78;4956433;28;20971;-85
2022/06/02 05:41:25;;;;;;;10.83;3.13;;;;;;;18.17;nan;101161.38;4972711;28;20476;-85
2022/06/02 05:44:10;;;;;;;21.93;3.13;;;;;;;18.23;nan;101165.16;4953144;28;20903;-84
2022/06/02 05:47:19;;;;;;;22.60;4.07;;;;;;;18.28;nan;101168.88;4953298;28;20447;-85
2022/06/02 05:50:03;;;;;;;21.70;3.97;;;;;;;18.32;nan;101179.47;4953011;29;20477;-86
2022/06/02 05:52:36;;;;;;;18.43;3.20;;;;;;;18.34;nan;101177.31;4970709;28;20500;-85
2022/06/02 05:55:36;;;;;;;22.87;3.40;;;;;;;18.36;nan;101187.09;4956518;28;20442;-85
2022/06/02 05:58:28;;;;;;;22.20;3.83;;;;;;;18.41;nan;101184.47;4986717;28;20455;-85
2022/06/02 06:01:08;;;;;;;14.60;3.20;;;;;;;18.42;nan;101188.09;4992803;28;20449;-85
2022/06/02 06:03:44;;;;;;;24.27;3.87;;;;;;;18.38;nan;101178.56;4994090;28;20468;-86
2022/06/02 06:06:24;;;;;;;26.67;3.90;;;;;;;18.43;nan;101187.84;4992864;28;20974;-85
2022/06/02 06:09:06;;;;;;;22.27;3.27;;;;;;;18.46;nan;101192.94;4992682;28;20943;-85
2022/06/02 06:12:10;;;;;;;23.73;3.83;;;;;;;18.48;nan;101196.28;4992547;28;20947;-85
2022/06/02 06:14:54;;;;;;;16.97;2.93;;;;;;;18.44;nan;101192.31;4992539;28;20506;-85
2022/06/02 06:17:55;;;;;;;21.90;4.07;;;;;;;18.48;nan;101196.28;5007588;28;21205;-85
2022/06/02 06:20:52;;;;;;;19.40;3.20;;;;;;;18.46;nan;101204.00;4993586;28;20537;-85
2022/06/02 06:23:42;;;;;;;17.63;4.20;;;;;;;18.46;nan;101204.00;4993684;28;20449;-85
2022/06/02 06:26:39;;;;;;;17.80;4.20;;;;;;;18.46;nan;101212.31;4992502;28;20515;-85
2022/06/02 06:29:30;;;;;;;20.93;3.93;;;;;;;18.48;nan;101201.81;5011034;28;21051;-85
2022/06/02 06:32:26;;;;;;;13.73;3.30;;;;;;;18.57;nan;101203.19;4996530;28;20451;-85
2022/06/02 06:35:24;;;;;;;18.00;3.40;;;;;;;18.62;nan;101208.06;4999024;28;20456;-86
2022/06/02 06:38:13;;;;;;;18.67;4.13;;;;;;;18.66;nan;101192.66;5015229;28;20966;-91
2022/06/02 06:40:49;;;;;;;25.40;4.00;;;;;;;18.70;nan;101198.53;5015753;28;20510;-85
2022/06/02 06:43:36;;;;;;;21.70;4.20;;;;;;;18.78;nan;101201.00;5014971;28;20509;-86
2022/06/02 06:46:25;;;;;;;18.27;3.80;;;;;;;18.82;nan;101191.13;5000257;28;20444;-85
2022/06/02 06:48:57;;;;;;;25.13;4.93;;;;;;;18.96;nan;101198.13;4983688;28;20464;-85
2022/06/02 06:51:58;;;;;;;22.23;3.87;;;;;;;19.08;nan;101199.00;5014714;28;20539;-86
2022/06/02 06:54:52;;;;;;;18.47;4.60;;;;;;;19.24;nan;101201.06;5014677;28;20452;-86
2022/06/02 06:57:38;;;;;;;20.37;4.20;;;;;;;19.40;nan;101216.16;5023800;28;20530;-86
2022/06/02 07:00:21;;;;;;;23.63;4.13;;;;;;;19.49;nan;101198.06;5002128;28;20439;-86
2022/06/02 07:03:10;;;;;;;20.03;4.17;;;;;;;19.57;nan;101205.22;5025298;28;20469;-86
2022/06/02 07:05:51;;;;;;;24.77;5.67;;;;;;;19.62;nan;101203.41;4952628;29;20455;-86
2022/06/02 07:08:36;;;;;;;23.83;4.63;;;;;;;19.73;nan;101223.03;4925905;29;20450;-85
2022/06/02 07:14:42;;;;;;;28.03;4.93;;;;;;;19.83;nan;101215.78;4936363;29;20456;-87
2022/06/02 07:17:49;;;;;;;20.37;3.00;;;;;;;19.94;nan;101222.41;4921680;29;20855;-86
2022/06/02 07:20:42;;;;;;;19.73;3.60;;;;;;;20.06;nan;101217.66;4922993;29;20797;-84
2022/06/02 07:23:12;;;;;;;20.20;3.50;;;;;;;20.23;nan;101229.69;4934878;28;20452;-85
2022/06/02 07:26:27;;;;;;;22.47;3.73;;;;;;;20.36;nan;101236.91;4994656;28;20453;-85
2022/06/02 07:29:12;;;;;;;21.83;4.03;;;;;;;20.48;nan;101237.72;4991266;28;20445;-86
2022/06/02 07:31:55;;;;;;;22.87;3.50;;;;;;;20.58;nan;101237.94;4979500;28;20452;-86
2022/06/02 07:34:45;;;;;;;22.20;2.93;;;;;;;20.62;nan;101233.56;4979390;28;20487;-86
2022/06/02 07:37:40;;;;;;;21.23;3.13;;;;;;;20.67;nan;101232.81;4994209;28;20909;-86
2022/06/02 07:40:15;;;;;;;16.43;2.60;;;;;;;20.77;nan;101246.06;4980687;28;20449;-85
2022/06/02 07:43:10;;;;;;;28.43;4.47;;;;;;;20.87;nan;101252.66;4963128;28;20524;-87
2022/06/02 07:46:12;;;;;;;22.70;3.13;;;;;;;20.97;nan;101249.22;4993094;28;20859;-87
2022/06/02 07:48:59;;;;;;;18.53;3.20;;;;;;;21.09;nan;101243.59;4967934;28;21041;-87
2022/06/02 07:51:39;;;;;;;25.50;3.30;;;;;;;21.20;nan;101249.09;5034401;28;20949;-88
2022/06/02 07:54:11;;;;;;;21.33;2.93;;;;;;;21.33;nan;101245.16;5051069;28;20454;-90
2022/06/02 07:57:11;;;;;;;18.27;2.60;;;;;;;21.43;nan;101236.13;5050796;28;20517;-89
2022/06/02 08:00:16;;;;;;;10.33;2.40;;;;;;;21.65;nan;101251.78;5018334;28;20451;-88
2022/06/02 08:03:16;;;;;;;23.53;3.60;;;;;;;21.74;nan;101254.16;5051176;28;20958;-92
2022/06/02 08:06:34;;;;;;;18.23;3.47;;;;;;;21.86;nan;101258.50;5048250;28;20447;-88
2022/06/02 08:09:15;;;;;;;23.00;3.93;;;;;;;21.90;nan;101270.81;5033904;28;20448;-89
2022/06/02 08:12:18;;;;;;;23.53;2.97;;;;;;;21.90;nan;101259.69;5035681;28;20435;-86
2022/06/02 08:15:19;;;;;;;16.47;2.50;;;;;;;21.93;nan;101266.69;5009389;28;20445;-85
2022/06/02 08:18:09;;;;;;;16.40;2.60;;;;;;;21.98;nan;101267.56;5050108;28;20539;-85
2022/06/02 08:20:57;;;;;;;17.27;2.73;;;;;;;22.04;nan;101271.31;5049441;28;20452;-90
2022/06/02 08:23:24;;;;;;;17.63;3.10;;;;;;;22.09;nan;101267.75;5034017;28;20968;-87
2022/06/02 08:25:58;;;;;;;17.60;3.63;;;;;;;22.17;nan;101276.50;5033727;28;20934;-87
2022/06/02 08:28:38;;;;;;;14.13;2.67;;;;;;;22.26;nan;101274.13;5049999;28;20468;-87
2022/06/02 08:31:58;;;;;;;19.93;3.03;;;;;;;22.39;nan;101274.56;5033670;28;20940;-87
2022/06/02 08:34:48;;;;;;;15.43;3.10;;;;;;;22.61;nan;101274.56;4988162;28;20824;-87
2022/06/02 08:37:30;;;;;;;13.60;3.50;;;;;;;22.79;nan;101273.38;4992994;28;20499;-87
2022/06/02 08:40:44;;;;;;;15.17;2.67;;;;;;;22.88;nan;101277.41;4993181;28;20449;-87
2022/06/02 08:43:32;;;;;;;16.73;2.93;;;;;;;22.93;nan;101273.81;4992902;28;20967;-87
2022/06/02 08:46:14;;;;;;;18.30;2.60;;;;;;;22.94;nan;101278.28;4993012;28;20457;-87
2022/06/02 08:48:46;;;;;;;13.20;2.60;;;;;;;22.85;nan;101257.56;4992925;28;20456;-87
2022/06/02 08:51:47;;;;;;;16.37;2.60;;;;;;;22.94;nan;101275.50;4992913;28;20880;-87
2022/06/02 08:54:22;;;;;;;13.23;2.53;;;;;;;22.93;nan;101273.81;4992767;28;20995;-87
2022/06/02 08:57:21;;;;;;;16.53;2.60;;;;;;;22.94;nan;101275.50;4992641;28;20492;-88
2022/06/02 09:00:10;;;;;;;10.23;2.63;;;;;;;22.93;nan;101277.44;4992680;28;20515;-87
2022/06/02 09:03:04;;;;;;;18.43;3.07;;;;;;;23.02;nan;101273.09;4992648;28;20452;-86
2022/06/02 09:06:09;;;;;;;15.23;2.80;;;;;;;23.18;nan;101282.44;5026570;28;20454;-87
2022/06/02 09:08:49;;;;;;;13.83;2.93;;;;;;;23.24;nan;101275.81;5032752;28;20446;-87
2022/06/02 09:11:31;;;;;;;19.70;2.90;;;;;;;23.28;nan;101276.13;5032860;28;20513;-87
2022/06/02 09:14:27;;;;;;;24.83;3.30;;;;;;;23.26;nan;101269.97;5032813;28;20463;-87
2022/06/02 09:17:01;;;;;;;13.20;3.07;;;;;;;23.30;nan;101268.31;5033700;28;20989;-87
2022/06/02 09:19:47;;;;;;;26.93;4.03;;;;;;;23.47;nan;101266.25;5033812;28;20450;-87
2022/06/02 09:22:32;;;;;;;16.47;3.60;;;;;;;23.80;nan;101273.50;5047598;28;20467;-88
2022/06/02 09:25:14;;;;;;;18.57;3.00;;;;;;;24.21;nan;101280.16;5047903;28;20787;-87
2022/06/02 09:28:22;;;;;;;17.47;2.00;;;;;;;24.70;nan;101282.63;5011225;28;20451;-87
2022/06/02 09:31:23;;;;;;;24.53;2.50;;;;;;;24.94;nan;101294.16;4953500;29;20451;-87
2022/06/02 09:34:40;;;;;;;18.40;2.63;;;;;;;24.97;nan;101282.44;4953762;28;20447;-88
2022/06/02 09:37:45;;;;;;;17.23;2.80;;;;;;;25.02;nan;101291.66;4885697;29;20497;-88
2022/06/02 09:40:26;;;;;;;11.50;2.27;;;;;;;25.08;nan;101284.13;4859455;29;20462;-88
2022/06/02 09:43:25;;;;;;;16.73;2.60;;;;;;;25.07;nan;101286.09;4857409;29;20486;-87
2022/06/02 09:46:27;;;;;;;13.73;2.43;;;;;;;25.01;nan;101283.59;4863406;29;20469;-88
2022/06/02 09:50:13;;;;;;;11.03;2.93;;;;;;;24.92;nan;101291.63;4886959;29;20462;-89
2022/06/02 09:52:59;;;;;;;13.50;2.50;;;;;;;24.95;nan;101287.47;4886097;29;20462;-87
2022/06/02 09:55:44;;;;;;;12.17;2.50;;;;;;;25.00;nan;101302.31;4881254;29;20457;-88
2022/06/02 09:58:45;;;;;;;13.50;2.57;;;;;;;25.02;nan;101288.03;4910728;29;20488;-88
2022/06/02 10:01:37;;;;;;;17.73;3.57;;;;;;;24.99;nan;101297.00;4906153;29;21044;-88
2022/06/02 10:04:14;;;;;;;12.00;2.90;;;;;;;24.96;nan;101286.38;4941680;28;20476;-89
2022/06/02 10:07:16;;;;;;;17.03;3.03;;;;;;;24.90;nan;101281.84;4989743;28;20966;-88
2022/06/02 10:09:54;;;;;;;11.80;2.77;;;;;;;24.92;nan;101286.03;4977566;28;20452;-88
2022/06/02 10:12:58;;;;;;;14.87;2.77;;;;;;;24.92;nan;101290.78;5051676;28;20994;-89
2022/06/02 10:15:34;;;;;;;18.20;3.23;;;;;;;24.87;nan;101287.97;5051598;28;20499;-88
2022/06/02 10:18:24;;;;;;;13.07;2.60;;;;;;;24.83;nan;101286.84;5051611;28;20485;-89
2022/06/02 10:21:16;;;;;;;17.73;2.30;;;;;;;24.79;nan;101287.41;5051628;28;20507;-89
2022/06/02 10:24:08;;;;;;;13.37;2.93;;;;;;;24.70;nan;101300.22;5051221;28;20999;-89
2022/06/02 10:27:03;;;;;;;18.40;3.10;;;;;;;24.67;nan;101289.59;5050362;28;20458;-89
2022/06/02 10:29:50;;;;;;;8.13;2.50;;;;;;;24.86;nan;101286.28;5067832;28;20511;-89
2022/06/02 10:32:55;;;;;;;12.73;2.50;;;;;;;25.01;nan;101278.84;5052580;28;20454;-89
2022/06/02 10:35:53;;;;;;;11.40;2.40;;;;;;;25.34;nan;101283.06;5051234;28;21006;-88
2022/06/02 10:38:28;;;;;;;13.90;2.63;;;;;;;25.56;nan;101281.94;5052174;28;20490;-89
2022/06/02 10:41:10;;;;;;;12.77;2.50;;;;;;;25.68;nan;101282.50;5061607;28;20995;-89
2022/06/02 10:44:12;;;;;;;14.50;2.20;;;;;;;25.92;nan;101277.16;5055493;28;20946;-89
2022/06/02 10:47:10;;;;;;;12.17;2.03;;;;;;;26.17;nan;101290.28;4938393;28;20442;-89
2022/06/02 10:50:13;;;;;;;12.03;1.93;;;;;;;26.39;nan;101282.38;4962127;28;20439;-89
2022/06/02 10:53:25;;;;;;;11.07;1.93;;;;;;;26.62;nan;101284.50;4987066;28;20457;-89
2022/06/02 10:55:58;;;;;;;12.67;2.50;;;;;;;26.81;nan;101291.13;4971493;28;20446;-89
2022/06/02 10:58:50;;;;;;;9.70;2.30;;;;;;;26.95;nan;101284.91;4987239;28;20489;-90
2022/06/02 11:01:57;;;;;;;11.00;1.90;;;;;;;27.03;nan;101276.72;4990629;28;20457;-89
2022/06/02 11:04:37;;;;;;;8.30;2.30;;;;;;;27.14;nan;101283.94;4986361;28;20443;-89
2022/06/02 11:07:30;;;;;;;12.00;2.63;;;;;;;27.22;nan;101282.50;5050786;28;20935;-89
2022/06/02 11:10:38;;;;;;;26.53;3.33;;;;;;;27.15;nan;101267.94;5042107;28;20450;-89
2022/06/02 11:13:30;;;;;;;9.90;1.80;;;;;;;27.18;nan;101270.16;5033405;28;20524;-89
2022/06/02 11:16:22;;;;;;;18.27;2.70;;;;;;;27.21;nan;101274.38;5032581;28;20449;-89
2022/06/02 11:19:06;;;;;;;13.70;2.70;;;;;;;27.28;nan;101272.06;5052271;28;20948;-89
2022/06/02 11:22:15;;;;;;;13.23;2.73;;;;;;;27.43;nan;101275.59;5053742;28;20442;-88
2022/06/02 11:25:11;;;;;;;12.70;2.60;;;;;;;27.64;nan;101264.22;5070086;28;20979;-89
2022/06/02 11:28:15;;;;;;;15.43;3.23;;;;;;;27.82;nan;101263.47;5053645;28;20446;-89
2022/06/02 11:31:16;;;;;;;18.53;3.03;;;;;;;27.97;nan;101252.06;4997479;28;20447;-88
2022/06/02 11:34:03;;;;;;;15.43;2.93;;;;;;;28.09;nan;101260.94;5013082;28;20514;-89
2022/06/02 11:36:39;;;;;;;13.07;2.40;;;;;;;28.19;nan;101237.47;5013437;28;20475;-88
2022/06/02 11:39:47;;;;;;;14.07;2.77;;;;;;;28.24;nan;101251.50;5013522;28;20455;-89
2022/06/02 11:42:43;;;;;;;15.57;2.53;;;;;;;28.32;nan;101245.19;5012765;28;20842;-89
2022/06/02 11:45:33;;;;;;;12.57;2.33;;;;;;;28.41;nan;101251.00;5013269;28;21013;-89
2022/06/02 11:48:34;;;;;;;7.83;1.83;;;;;;;28.52;nan;101246.91;4999374;28;20510;-89
2022/06/02 11:51:26;;;;;;;12.33;2.17;;;;;;;28.56;nan;101230.28;5013202;28;20456;-88
2022/06/02 11:54:13;;;;;;;14.07;2.20;;;;;;;28.70;nan;101245.25;4997279;28;20464;-89
2022/06/02 11:57:05;;;;;;;11.33;3.30;;;;;;;28.71;nan;101247.78;4996963;28;20518;-90
2022/06/02 12:00:02;;;;;;;15.37;2.33;;;;;;;28.79;nan;101235.00;5022353;28;20466;-88
2022/06/02 12:02:54;;;;;;;10.80;2.07;;;;;;;28.87;nan;101242.78;5028152;28;20462;-89
2022/06/02 12:05:59;;;;;;;6.40;1.50;;;;;;;28.99;nan;101245.16;4997189;28;20460;-88
2022/06/02 12:08:48;;;;;;;8.30;1.83;;;;;;;29.07;nan;101238.81;5037837;28;20515;-88
2022/06/02 12:11:23;;;;;;;8.13;2.30;;;;;;;29.08;nan;101244.16;5053576;28;20507;-89
2022/06/02 12:14:20;;;;;;;11.47;2.60;;;;;;;29.06;nan;101245.59;5070349;28;20549;-89
2022/06/02 12:17:16;;;;;;;8.53;1.80;;;;;;;29.06;nan;101239.97;5035933;28;20819;-89
2022/06/02 12:20:23;;;;;;;11.70;2.50;;;;;;;29.13;nan;101237.59;5053499;28;20503;-89
2022/06/02 12:23:13;;;;;;;11.17;2.27;;;;;;;29.29;nan;101239.03;5053421;28;20484;-88
2022/06/02 12:25:45;;;;;;;10.80;2.13;;;;;;;29.27;nan;101235.66;5052472;28;20496;-89
2022/06/02 12:28:37;;;;;;;12.63;2.47;;;;;;;29.26;nan;101236.81;5069368;28;20455;-89
2022/06/02 12:31:26;;;;;;;13.97;2.63;;;;;;;29.36;nan;101245.09;5053433;28;20458;-88
2022/06/02 12:34:34;;;;;;;11.73;2.03;;;;;;;29.38;nan;101240.00;5054405;28;20546;-88
2022/06/02 12:37:21;;;;;;;12.37;2.90;;;;;;;29.48;nan;101234.22;4957591;28;20835;-88
2022/06/02 12:40:08;;;;;;;12.77;2.33;;;;;;;29.60;nan;101241.34;4957383;28;20454;-88
2022/06/02 12:42:57;;;;;;;11.53;2.10;;;;;;;29.67;nan;101222.03;4972004;28;20446;-89
2022/06/02 12:45:44;;;;;;;9.50;2.13;;;;;;;29.64;nan;101239.56;4957081;28;20476;-88
2022/06/02 12:48:33;;;;;;;6.87;2.03;;;;;;;29.67;nan;101227.69;4957341;28;20439;-88
2022/06/02 12:51:51;;;;;;;9.83;2.40;;;;;;;29.73;nan;101221.66;4972719;28;20446;-92
2022/06/02 12:54:40;;;;;;;12.83;2.33;;;;;;;29.71;nan;101228.75;4908499;29;20503;-88
2022/06/02 12:57:26;;;;;;;9.10;2.50;;;;;;;29.67;nan;101199.50;4942892;28;20441;-88
2022/06/02 13:00:33;;;;;;;10.60;2.60;;;;;;;29.81;nan;101222.94;4945629;29;20473;-88
2022/06/02 13:03:30;;;;;;;12.80;2.67;;;;;;;29.84;nan;101222.28;4918653;29;20456;-87
2022/06/02 13:06:03;;;;;;;11.57;2.80;;;;;;;29.78;nan;101218.75;4921260;29;20459;-88
2022/06/02 13:08:55;;;;;;;9.13;2.17;;;;;;;29.89;nan;101222.19;4950669;28;20454;-88
2022/06/02 13:11:49;;;;;;;11.17;2.20;;;;;;;29.95;nan;101220.94;4957357;28;20457;-88
2022/06/02 13:14:22;;;;;;;8.43;2.20;;;;;;;29.97;nan;101220.63;4984957;28;20478;-88
2022/06/02 13:17:10;;;;;;;12.80;2.13;;;;;;;29.98;nan;101211.91;5028369;28;20444;-87
2022/06/02 13:19:54;;;;;;;10.30;2.00;;;;;;;30.07;nan;101218.47;5010917;28;20493;-88
2022/06/02 13:22:39;;;;;;;7.00;1.70;;;;;;;30.19;nan;101218.78;5026860;28;20470;-88
2022/06/02 13:25:38;;;;;;;10.03;2.23;;;;;;;30.28;nan;101218.03;5026624;28;20499;-88
2022/06/02 13:28:32;;;;;;;6.53;1.43;;;;;;;30.30;nan;101208.13;4995778;28;20506;-88
2022/06/02 13:31:10;;;;;;;4.97;1.60;;;;;;;30.40;nan;101209.91;4995712;28;20440;-88